createdAt,value
2023-01-19T00:01:41.510Z,99545.00
2023-01-19T00:04:08.748Z,99589.59
2023-01-19T00:06:36.013Z,99558.38
2023-01-19T00:09:08.693Z,99535.63
2023-01-19T00:11:36.020Z,99594.44
2023-01-19T00:14:03.414Z,99562.19
2023-01-19T00:16:32.692Z,99514.78
2023-01-19T00:18:59.898Z,99514.94
2023-01-19T00:21:26.584Z,99582.50
2023-01-19T00:23:53.399Z,99581.03
2023-01-19T00:26:22.367Z,99599.84
2023-01-19T00:28:50.488Z,99598.47
2023-01-19T00:31:17.366Z,99508.66
2023-01-19T00:33:44.184Z,99598.06
2023-01-19T00:36:10.988Z,99592.63
2023-01-19T00:38:39.077Z,99600.75
2023-01-19T00:41:06.189Z,99601.66
2023-01-19T00:43:33.025Z,99596.66
2023-01-19T00:45:59.842Z,99600.31
2023-01-19T00:48:26.583Z,99597.03
2023-01-19T00:50:53.331Z,99577.66
2023-01-19T00:53:20.344Z,99590.94
2023-01-19T00:55:47.321Z,99603.00
2023-01-19T00:58:14.123Z,99583.50
2023-01-19T01:00:41.081Z,99565.97
2023-01-19T01:03:07.898Z,99590.38
2023-01-19T01:05:34.650Z,99595.66
2023-01-19T01:08:01.340Z,99603.66
2023-01-19T01:10:29.639Z,99608.06
2023-01-19T01:13:20.397Z,99604.50
2023-01-19T01:15:44.023Z,99592.31
2023-01-19T01:18:10.770Z,99599.91
2023-01-19T01:20:37.701Z,99597.84
2023-01-19T01:23:04.785Z,99607.13
2023-01-19T01:25:34.742Z,99620.53
2023-01-19T01:28:03.099Z,99589.63
2023-01-19T01:30:29.852Z,99593.06
2023-01-19T01:32:58.356Z,99555.00
2023-01-19T01:35:42.925Z,99554.59
2023-01-19T01:38:14.898Z,99568.97
2023-01-19T01:40:42.841Z,99521.97
2023-01-19T01:43:19.747Z,99596.72
2023-01-19T01:45:50.123Z,99582.25
2023-01-19T01:48:24.706Z,99608.38
2023-01-19T01:51:15.788Z,99569.06
2023-01-19T01:53:47.423Z,99558.88
2023-01-19T01:56:20.177Z,99546.88
2023-01-19T01:58:47.088Z,99550.53
2023-01-19T02:01:32.723Z,99609.06
2023-01-19T02:03:59.974Z,99593.63
2023-01-19T02:06:26.761Z,99603.53
2023-01-19T02:09:21.883Z,99600.94
2023-01-19T02:12:08.165Z,99602.44
2023-01-19T02:14:39.157Z,99605.19
2023-01-19T02:17:07.306Z,99602.28
2023-01-19T02:19:41.094Z,99608.03
2023-01-19T02:22:18.447Z,99586.19
2023-01-19T02:24:45.369Z,99608.44
2023-01-19T02:27:12.788Z,99595.59
2023-01-19T02:29:39.915Z,99597.91
2023-01-19T02:32:07.521Z,99587.63
2023-01-19T02:34:35.199Z,99603.75
2023-01-19T02:37:07.511Z,99600.75
2023-01-19T02:39:42.276Z,99583.28
2023-01-19T02:42:23.153Z,99604.13
2023-01-19T02:44:53.866Z,99587.06
2023-01-19T02:47:20.656Z,99597.91
2023-01-19T02:49:57.495Z,99599.94
2023-01-19T02:52:24.863Z,99595.72
2023-01-19T02:55:18.353Z,99598.03
2023-01-19T02:57:48.079Z,99596.00
2023-01-19T03:00:33.984Z,99597.34
2023-01-19T03:03:22.101Z,99593.53
2023-01-19T03:06:03.261Z,99570.78
2023-01-19T03:08:52.790Z,99586.38
2023-01-19T03:11:19.719Z,99561.03
2023-01-19T03:13:52.637Z,99579.44
2023-01-19T03:16:29.658Z,99586.38
2023-01-19T03:19:04.578Z,99573.75
2023-01-19T03:21:36.003Z,99575.91
2023-01-19T03:24:06.485Z,99578.09
2023-01-19T03:26:41.146Z,99588.00
2023-01-19T03:29:10.656Z,99574.88
2023-01-19T03:31:38.905Z,99581.50
2023-01-19T03:34:10.442Z,99582.84
2023-01-19T03:36:53.252Z,99581.88
2023-01-19T03:39:24.971Z,99589.72
2023-01-19T03:42:00.171Z,99569.13
2023-01-19T03:44:30.667Z,99588.94
2023-01-19T03:47:02.676Z,99542.72
2023-01-19T03:49:31.838Z,99592.84
2023-01-19T03:51:59.554Z,99561.28
2023-01-19T03:54:26.696Z,99595.44
2023-01-19T03:56:54.297Z,99585.13
2023-01-19T03:59:21.965Z,99577.00
2023-01-19T04:01:49.138Z,99581.59
2023-01-19T04:04:16.527Z,99558.69
2023-01-19T04:06:44.539Z,99512.38
2023-01-19T04:09:11.383Z,99556.91
2023-01-19T04:11:38.628Z,99587.13
2023-01-19T04:14:05.340Z,99585.38
2023-01-19T04:16:32.064Z,99569.22
2023-01-19T04:18:59.005Z,99577.66
2023-01-19T04:21:25.762Z,99564.66
2023-01-19T04:23:53.365Z,99579.69
2023-01-19T04:26:20.375Z,99591.34
2023-01-19T04:28:48.587Z,99583.88
2023-01-19T04:31:15.445Z,99551.66
2023-01-19T04:33:42.720Z,99550.59
2023-01-19T04:36:09.890Z,99513.19
2023-01-19T04:38:37.050Z,99512.53
2023-01-19T04:41:09.724Z,99507.78
2023-01-19T04:43:36.497Z,99522.16
2023-01-19T04:46:03.404Z,99573.63
2023-01-19T04:48:30.090Z,99569.72
2023-01-19T04:50:56.781Z,99570.09
2023-01-19T04:53:23.488Z,99580.13
2023-01-19T04:55:54.987Z,99590.97
2023-01-19T04:58:21.797Z,99585.56
2023-01-19T05:00:48.790Z,99587.06
2023-01-19T05:03:15.591Z,99577.72
2023-01-19T05:05:42.292Z,99564.56
2023-01-19T05:08:09.120Z,99559.00
2023-01-19T05:10:36.927Z,99547.09
2023-01-19T05:13:04.412Z,99568.22
2023-01-19T05:15:31.480Z,99579.47
2023-01-19T05:17:58.636Z,99581.13
2023-01-19T05:20:25.516Z,99584.50
2023-01-19T05:22:53.738Z,99556.31
2023-01-19T05:25:20.413Z,99579.22
2023-01-19T05:27:47.211Z,99578.00
2023-01-19T05:30:14.789Z,99527.97
2023-01-19T05:32:41.597Z,99561.72
2023-01-19T05:35:08.756Z,99580.28
2023-01-19T05:37:35.585Z,99590.19
2023-01-19T05:40:02.450Z,99566.63
2023-01-19T05:42:30.788Z,99550.50
2023-01-19T05:44:59.718Z,99514.16
2023-01-19T05:47:26.752Z,99574.47
2023-01-19T05:49:53.563Z,99568.38
2023-01-19T05:52:20.296Z,99555.78
2023-01-19T05:54:48.402Z,99570.41
2023-01-19T05:57:15.283Z,99596.56
2023-01-19T05:59:42.024Z,99588.28
2023-01-19T06:02:09.047Z,99581.50
2023-01-19T06:04:35.750Z,99588.56
2023-01-19T06:07:02.640Z,99578.00
2023-01-19T06:09:29.540Z,99581.13
2023-01-19T06:11:57.845Z,99591.56
2023-01-19T06:14:25.253Z,99578.13
2023-01-19T06:16:52.299Z,99573.81
2023-01-19T06:19:19.073Z,99593.31
2023-01-19T06:21:49.923Z,99586.66
2023-01-19T06:24:16.681Z,99578.69
2023-01-19T06:26:47.833Z,99589.66
2023-01-19T06:29:15.072Z,99596.03
2023-01-19T06:31:42.609Z,99605.63
2023-01-19T06:34:10.344Z,99603.06
2023-01-19T06:36:37.299Z,99596.69
2023-01-19T06:39:06.151Z,99616.75
2023-01-19T06:41:33.816Z,99600.47
2023-01-19T06:44:01.391Z,99633.13
2023-01-19T06:46:28.565Z,99634.91
2023-01-19T06:48:55.584Z,99630.00
2023-01-19T06:51:22.930Z,99642.34
2023-01-19T06:53:50.056Z,99643.56
2023-01-19T06:56:16.809Z,99631.09
2023-01-19T06:58:43.843Z,99632.47
2023-01-19T07:01:10.916Z,99654.53
2023-01-19T07:03:38.687Z,99651.44
2023-01-19T07:06:09.251Z,99614.53
2023-01-19T07:08:37.545Z,99650.34
2023-01-19T07:11:22.167Z,99665.00
2023-01-19T07:13:55.918Z,99664.72
2023-01-19T07:16:25.356Z,99667.72
2023-01-19T07:18:52.234Z,99669.97
2023-01-19T07:21:19.416Z,99690.06
2023-01-19T07:23:49.072Z,99681.22
2023-01-19T07:26:18.704Z,99675.75
2023-01-19T07:28:46.808Z,99644.53
2023-01-19T07:31:15.795Z,99685.00
2023-01-19T07:33:44.385Z,99695.72
2023-01-19T07:36:11.740Z,99689.94
2023-01-19T07:38:38.562Z,99706.75
2023-01-19T07:41:07.652Z,99704.56
2023-01-19T07:43:34.577Z,99713.41
2023-01-19T07:46:03.477Z,99733.50
2023-01-19T07:48:30.253Z,99721.97
2023-01-19T07:51:01.846Z,99728.50
2023-01-19T07:53:28.740Z,99738.13
2023-01-19T07:55:56.753Z,99730.41
2023-01-19T07:58:24.880Z,99728.53
2023-01-19T08:00:51.705Z,99738.03
2023-01-19T08:03:18.782Z,99751.47
2023-01-19T08:05:50.830Z,99766.69
2023-01-19T08:08:18.363Z,99762.75
2023-01-19T08:10:45.264Z,99764.22
2023-01-19T08:13:11.940Z,99772.38
2023-01-19T08:15:38.584Z,99785.94
2023-01-19T08:18:05.876Z,99786.91
2023-01-19T08:20:32.868Z,99795.19
2023-01-19T08:23:02.994Z,99801.81
2023-01-19T08:25:38.779Z,99807.94
2023-01-19T08:28:07.345Z,99804.00
2023-01-19T08:30:34.834Z,99795.88
2023-01-19T08:33:05.142Z,99817.56
2023-01-19T08:35:37.149Z,99819.09
2023-01-19T08:38:05.395Z,99820.84
2023-01-19T08:40:34.872Z,99827.22
2023-01-19T08:43:08.000Z,99834.16
2023-01-19T08:45:36.493Z,99827.22
2023-01-19T08:48:06.564Z,99831.44
2023-01-19T08:50:34.498Z,99845.28
2023-01-19T08:53:03.487Z,99858.31
2023-01-19T08:55:30.822Z,99853.44
2023-01-19T08:58:00.387Z,99869.88
2023-01-19T09:00:28.141Z,99862.38
2023-01-19T09:02:55.139Z,99865.78
2023-01-19T09:05:22.386Z,99874.06
2023-01-19T09:07:49.581Z,99872.84
2023-01-19T09:10:16.876Z,99876.25
2023-01-19T09:12:45.060Z,99881.69
2023-01-19T09:15:14.018Z,99888.22
2023-01-19T09:17:42.500Z,99888.34
2023-01-19T09:20:10.991Z,99890.22
2023-01-19T09:22:39.940Z,99903.28
2023-01-19T09:25:07.976Z,99894.31
2023-01-19T09:27:35.188Z,99904.50
2023-01-19T09:30:02.216Z,99907.22
2023-01-19T09:32:29.000Z,99911.56
2023-01-19T09:34:56.582Z,99911.97
2023-01-19T09:37:23.271Z,99930.84
2023-01-19T09:39:50.106Z,99912.53
2023-01-19T09:42:46.312Z,99884.69
2023-01-19T09:45:39.684Z,99947.44
2023-01-19T09:48:19.798Z,99941.19
2023-01-19T09:50:48.592Z,99946.34
2023-01-19T09:53:33.547Z,99952.47
2023-01-19T09:56:00.216Z,99955.88
2023-01-19T09:58:27.092Z,99967.41
2023-01-19T10:01:06.600Z,99967.00
2023-01-19T10:03:38.428Z,99961.03
2023-01-19T10:06:09.564Z,99969.84
2023-01-19T10:08:54.893Z,99977.88
2023-01-19T10:11:52.948Z,99983.59
2023-01-19T10:14:33.249Z,99980.75
2023-01-19T10:17:12.781Z,99988.91
2023-01-19T10:19:46.751Z,99981.00
2023-01-19T10:22:28.751Z,99995.28
2023-01-19T10:25:15.891Z,99982.91
2023-01-19T10:27:42.959Z,99976.09
2023-01-19T10:30:21.132Z,99990.13
2023-01-19T10:32:48.325Z,99999.06
2023-01-19T10:35:26.158Z,99993.09
2023-01-19T10:37:56.402Z,99999.47
2023-01-19T10:40:32.934Z,99988.78
2023-01-19T10:42:59.990Z,99980.34
2023-01-19T10:45:30.377Z,99997.81
2023-01-19T10:48:07.213Z,99993.47
2023-01-19T10:50:41.213Z,99989.25
2023-01-19T10:53:22.602Z,99989.69
2023-01-19T10:56:14.492Z,99988.91
2023-01-19T10:58:41.431Z,99999.06
2023-01-19T11:01:19.206Z,100007.66
2023-01-19T11:03:46.739Z,100011.38
2023-01-19T11:06:16.242Z,100012.03
2023-01-19T11:08:44.593Z,100019.25
2023-01-19T11:11:12.623Z,100011.03
2023-01-19T11:13:41.305Z,100004.44
2023-01-19T11:16:26.918Z,100024.97
2023-01-19T11:18:55.810Z,100006.16
2023-01-19T11:21:26.084Z,100007.72
2023-01-19T11:23:59.506Z,100003.16
2023-01-19T11:26:35.135Z,99990.78
2023-01-19T11:29:04.198Z,100006.00
2023-01-19T11:31:35.514Z,100004.31
2023-01-19T11:34:05.215Z,100020.16
2023-01-19T11:36:34.732Z,99992.78
2023-01-19T11:39:28.130Z,100006.03
2023-01-19T11:41:58.820Z,100004.28
2023-01-19T11:44:35.710Z,100008.72
2023-01-19T11:47:05.706Z,100001.63
2023-01-19T11:49:44.659Z,100014.19
2023-01-19T11:52:53.519Z,100010.16
2023-01-19T11:55:36.521Z,100004.53
2023-01-19T11:58:05.500Z,100012.66
2023-01-19T12:00:44.759Z,100017.78
2023-01-19T12:03:18.462Z,100019.53
2023-01-19T12:05:51.446Z,100006.41
2023-01-19T12:08:27.076Z,100016.53
2023-01-19T12:10:57.375Z,100010.09
2023-01-19T12:13:27.577Z,100000.41
2023-01-19T12:16:00.447Z,100016.75
2023-01-19T12:18:36.951Z,100012.41
2023-01-19T12:21:04.381Z,100009.22
2023-01-19T12:23:31.211Z,100024.47
2023-01-19T12:26:29.471Z,100011.69
2023-01-19T12:29:13.376Z,100014.03
2023-01-19T12:31:43.463Z,100028.38
2023-01-19T12:34:26.214Z,100029.53
2023-01-19T12:36:57.663Z,100020.44
2023-01-19T12:39:25.662Z,100024.75
2023-01-19T12:42:14.547Z,100018.53
2023-01-19T12:44:42.040Z,100023.44
2023-01-19T12:47:13.372Z,100030.34
2023-01-19T12:49:46.547Z,100013.38
2023-01-19T12:52:49.469Z,100037.22
2023-01-19T12:55:37.922Z,100016.00
2023-01-19T12:58:14.171Z,100042.38
2023-01-19T13:00:43.521Z,100012.28
2023-01-19T13:03:16.175Z,100062.09
2023-01-19T13:05:42.842Z,100055.13
2023-01-19T13:08:09.561Z,100054.53
2023-01-19T13:11:10.450Z,100050.41
2023-01-19T13:14:06.193Z,100055.88
2023-01-19T13:16:35.525Z,100059.72
2023-01-19T13:19:16.538Z,100051.38
2023-01-19T13:21:47.983Z,100056.16
2023-01-19T13:24:17.620Z,100049.13
2023-01-19T13:26:50.227Z,100066.13
2023-01-19T13:29:30.366Z,100057.84
2023-01-19T13:32:19.481Z,100061.81
2023-01-19T13:34:57.980Z,100054.59
2023-01-19T13:37:33.280Z,100056.72
2023-01-19T13:40:00.321Z,100062.84
2023-01-19T13:42:39.697Z,100066.75
2023-01-19T13:45:33.559Z,100050.56
2023-01-19T13:48:04.529Z,100070.44
2023-01-19T13:50:34.283Z,100068.28
2023-01-19T13:53:01.539Z,100053.06
2023-01-19T13:55:30.952Z,100061.00
2023-01-19T13:57:58.092Z,100077.56
2023-01-19T14:00:31.014Z,100078.03
2023-01-19T14:03:18.771Z,100093.13
2023-01-19T14:05:45.511Z,100073.19
2023-01-19T14:08:15.353Z,100074.38
2023-01-19T14:10:52.193Z,100073.50
2023-01-19T14:13:29.552Z,100105.13
2023-01-19T14:15:59.058Z,100111.41
2023-01-19T14:18:31.502Z,100088.63
2023-01-19T14:21:03.811Z,100110.28
2023-01-19T14:23:36.623Z,100114.66
2023-01-19T14:26:04.442Z,100115.06
2023-01-19T14:28:39.472Z,100117.72
2023-01-19T14:31:28.212Z,100123.00
2023-01-19T14:33:56.327Z,100124.72
2023-01-19T14:36:34.929Z,100113.63
2023-01-19T14:39:03.150Z,100123.25
2023-01-19T14:41:44.120Z,100128.19
2023-01-19T14:44:15.963Z,100132.03
2023-01-19T14:46:48.508Z,100124.38
2023-01-19T14:49:32.738Z,100131.50
2023-01-19T14:52:02.781Z,100136.41
2023-01-19T14:54:40.551Z,100136.25
2023-01-19T14:57:13.201Z,100141.53
2023-01-19T14:59:40.730Z,100139.63
2023-01-19T15:02:08.798Z,100150.78
2023-01-19T15:04:35.525Z,100152.94
2023-01-19T15:07:02.204Z,100158.84
2023-01-19T15:09:28.990Z,100154.13
2023-01-19T15:11:56.036Z,100155.28
2023-01-19T15:14:22.715Z,100159.94
2023-01-19T15:16:49.581Z,100129.81
2023-01-19T15:19:18.014Z,100135.75
2023-01-19T15:21:46.869Z,100162.75
2023-01-19T15:24:16.359Z,100158.59
2023-01-19T15:26:44.487Z,100170.09
2023-01-19T15:29:19.249Z,100172.28
2023-01-19T15:31:46.121Z,100166.34
2023-01-19T15:34:13.617Z,100160.50
2023-01-19T15:37:05.547Z,100105.72
2023-01-19T15:39:35.127Z,100108.00
2023-01-19T15:42:01.824Z,100172.81
2023-01-19T15:44:28.546Z,100165.31
2023-01-19T15:46:55.253Z,100182.72
2023-01-19T15:49:22.080Z,100196.47
2023-01-19T15:51:49.675Z,100196.31
2023-01-19T15:54:16.800Z,100197.66
2023-01-19T15:56:43.644Z,100179.97
2023-01-19T15:59:10.310Z,100212.72
2023-01-19T16:01:37.087Z,100204.13
2023-01-19T16:04:06.739Z,100198.22
2023-01-19T16:06:34.273Z,100216.06
2023-01-19T16:09:01.642Z,100218.03
2023-01-19T16:11:33.560Z,100216.50
2023-01-19T16:14:00.812Z,100220.66
2023-01-19T16:16:28.382Z,100217.91
2023-01-19T16:18:56.224Z,100214.75
2023-01-19T16:21:23.794Z,100223.19
2023-01-19T16:23:50.641Z,100234.03
2023-01-19T16:26:35.298Z,100211.75
2023-01-19T16:29:09.906Z,100235.81
2023-01-19T16:31:38.022Z,100230.84
2023-01-19T16:34:04.668Z,100235.66
2023-01-19T16:36:34.499Z,100238.97
2023-01-19T16:39:11.479Z,100245.25
2023-01-19T16:41:38.923Z,100254.28
2023-01-19T16:44:06.401Z,100249.00
2023-01-19T16:46:36.108Z,100254.63
2023-01-19T16:49:12.012Z,100259.91
2023-01-19T16:51:38.801Z,100255.81
2023-01-19T16:54:05.770Z,100261.94
2023-01-19T16:56:32.941Z,100274.38
2023-01-19T16:58:59.838Z,100280.34
2023-01-19T17:01:28.399Z,100268.19
2023-01-19T17:03:55.526Z,100284.81
2023-01-19T17:06:23.266Z,100275.56
2023-01-19T17:08:50.890Z,100280.03
2023-01-19T17:11:24.258Z,100286.34
2023-01-19T17:14:00.448Z,100273.81
2023-01-19T17:16:29.161Z,100304.38
2023-01-19T17:19:00.508Z,100293.50
2023-01-19T17:21:27.485Z,100303.56
2023-01-19T17:23:56.153Z,100305.56
2023-01-19T17:26:42.904Z,100307.44
2023-01-19T17:29:10.228Z,100301.25
2023-01-19T17:31:38.707Z,100310.38
2023-01-19T17:34:05.424Z,100322.06
2023-01-19T17:36:33.646Z,100320.66
2023-01-19T17:39:04.799Z,100325.00
2023-01-19T17:41:35.244Z,100320.06
2023-01-19T17:44:03.466Z,100308.81
2023-01-19T17:46:45.401Z,100323.47
2023-01-19T17:49:12.322Z,100277.34
2023-01-19T17:51:39.036Z,100316.47
2023-01-19T17:54:05.869Z,100319.84
2023-01-19T17:56:36.947Z,100333.78
2023-01-19T17:59:05.422Z,100328.16
2023-01-19T18:01:33.787Z,100323.03
2023-01-19T18:04:02.640Z,100338.22
2023-01-19T18:06:31.862Z,100322.06
2023-01-19T18:08:59.422Z,100321.03
2023-01-19T18:11:26.730Z,100305.31
2023-01-19T18:13:54.063Z,100335.78
2023-01-19T18:16:27.352Z,100328.84
2023-01-19T18:18:55.691Z,100331.66
2023-01-19T18:21:24.021Z,100324.75
2023-01-19T18:23:51.691Z,100343.16
2023-01-19T18:26:21.278Z,100345.72
2023-01-19T18:28:48.601Z,100343.03
2023-01-19T18:31:17.924Z,100347.13
2023-01-19T18:33:45.143Z,100358.25
2023-01-19T18:36:12.310Z,100352.63
2023-01-19T18:38:39.683Z,100349.34
2023-01-19T18:41:11.963Z,100316.91
2023-01-19T18:43:39.457Z,100364.78
2023-01-19T18:46:07.280Z,100365.28
2023-01-19T18:48:34.121Z,100357.06
2023-01-19T18:51:06.148Z,100360.25
2023-01-19T18:53:33.291Z,100359.41
2023-01-19T18:56:02.141Z,100364.47
2023-01-19T18:58:30.191Z,100358.81
2023-01-19T19:00:56.957Z,100372.28
2023-01-19T19:03:23.734Z,100354.63
2023-01-19T19:05:50.603Z,100364.66
2023-01-19T19:08:17.569Z,100363.84
2023-01-19T19:10:44.925Z,100381.66
2023-01-19T19:13:14.280Z,100374.66
2023-01-19T19:18:35.813Z,100349.94
2023-01-19T19:21:10.940Z,100375.69
2023-01-19T19:23:38.865Z,100372.56
2023-01-19T19:26:08.440Z,100386.59
2023-01-19T19:28:40.918Z,100388.00
2023-01-19T19:31:15.335Z,100388.25
2023-01-19T19:33:44.839Z,100386.72
2023-01-19T19:36:12.684Z,100388.81
2023-01-19T19:38:47.512Z,100392.22
2023-01-19T19:41:17.346Z,100390.69
2023-01-19T19:43:47.535Z,100372.06
2023-01-19T19:46:20.306Z,100334.94
2023-01-19T19:48:48.908Z,100362.22
2023-01-19T19:51:19.273Z,100405.91
2023-01-19T19:53:50.166Z,100382.00
2023-01-19T19:56:21.527Z,100416.09
2023-01-19T19:58:48.992Z,100360.66
2023-01-19T20:01:18.640Z,100402.38
2023-01-19T20:03:46.133Z,100399.06
2023-01-19T20:06:22.826Z,100399.50
2023-01-19T20:08:50.847Z,100390.69
2023-01-19T20:11:20.245Z,100409.09
2023-01-19T20:13:47.809Z,100370.38
2023-01-19T20:16:17.429Z,100404.56
2023-01-19T20:18:51.427Z,100419.19
2023-01-19T20:21:27.012Z,100415.53
2023-01-19T20:23:59.604Z,100416.06
2023-01-19T20:26:30.493Z,100412.53
2023-01-19T20:28:59.991Z,100428.56
2023-01-19T20:31:30.808Z,100426.41
2023-01-19T20:34:01.931Z,100342.78
2023-01-19T20:36:35.503Z,100435.06
2023-01-19T20:39:10.380Z,100449.78
2023-01-19T20:41:43.578Z,100432.94
2023-01-19T20:44:12.763Z,100427.38
2023-01-19T20:46:39.977Z,100449.22
2023-01-19T20:49:10.380Z,100444.91
2023-01-19T20:51:40.352Z,100402.22
2023-01-19T20:54:15.064Z,100429.44
2023-01-19T20:56:41.834Z,100441.69
2023-01-19T20:59:10.248Z,100477.81
2023-01-19T21:01:37.743Z,100478.22
2023-01-19T21:04:12.861Z,100480.19
2023-01-19T21:06:40.168Z,100442.00
2023-01-19T21:09:08.652Z,100486.91
2023-01-19T21:11:37.465Z,100481.44
2023-01-19T21:14:05.311Z,100489.25
2023-01-19T21:16:34.028Z,100491.81
2023-01-19T21:19:03.619Z,100489.25
2023-01-19T21:21:31.707Z,100500.97
2023-01-19T21:24:00.956Z,100507.97
2023-01-19T21:26:29.938Z,100501.50
2023-01-19T21:29:01.255Z,100490.19
2023-01-19T21:31:28.971Z,100515.22
2023-01-19T21:33:56.964Z,100522.94
2023-01-19T21:36:24.811Z,100506.06
2023-01-19T21:38:52.520Z,100514.25
2023-01-19T21:41:20.011Z,100530.28
2023-01-19T21:43:47.061Z,100526.09
2023-01-19T21:46:17.084Z,100531.19
2023-01-19T21:48:43.947Z,100543.59
2023-01-19T21:51:10.654Z,100534.25
2023-01-19T21:53:37.818Z,100534.13
2023-01-19T21:56:09.460Z,100543.78
2023-01-19T21:58:36.423Z,100541.69
2023-01-19T22:01:05.753Z,100542.50
2023-01-19T22:03:32.607Z,100542.38
2023-01-19T22:06:07.606Z,100548.47
2023-01-19T22:08:35.067Z,100552.81
2023-01-19T22:11:10.572Z,100549.50
2023-01-19T22:13:40.880Z,100548.59
2023-01-19T22:16:13.587Z,100537.31
2023-01-19T22:18:42.748Z,100551.19
2023-01-19T22:21:12.499Z,100526.63
2023-01-19T22:23:40.161Z,100542.56
2023-01-19T22:26:08.234Z,100546.91
2023-01-19T22:28:35.480Z,100559.88
2023-01-19T22:31:13.015Z,100570.72
2023-01-19T22:33:40.772Z,100558.56
2023-01-19T22:36:13.388Z,100567.88
2023-01-19T22:38:40.822Z,100560.53
2023-01-19T22:41:24.016Z,100572.69
2023-01-19T22:43:53.040Z,100578.44
2023-01-19T22:46:21.417Z,100581.56
2023-01-19T22:48:49.396Z,100571.50
2023-01-19T22:51:17.703Z,100584.47
2023-01-19T22:53:44.530Z,100569.59
2023-01-19T22:56:17.514Z,100573.88
2023-01-19T22:58:45.165Z,100558.44
2023-01-19T23:01:23.219Z,100585.81
2023-01-19T23:03:50.296Z,100587.44
2023-01-19T23:06:22.370Z,100560.31
2023-01-19T23:08:49.351Z,100574.81
2023-01-19T23:11:22.256Z,100563.84
2023-01-19T23:13:49.657Z,100578.50
2023-01-19T23:16:17.395Z,100579.06
2023-01-19T23:18:44.968Z,100587.31
2023-01-19T23:21:16.907Z,100595.88
2023-01-19T23:23:44.650Z,100560.53
2023-01-19T23:26:19.201Z,100594.34
2023-01-19T23:28:47.449Z,100596.13
2023-01-19T23:31:24.218Z,100584.72
2023-01-19T23:33:53.355Z,100600.31
2023-01-19T23:36:22.763Z,100597.34
2023-01-19T23:38:51.717Z,100612.72
2023-01-19T23:41:19.505Z,100601.19
2023-01-19T23:43:46.812Z,100614.97
2023-01-19T23:46:14.843Z,100595.81
2023-01-19T23:48:41.648Z,100578.78
2023-01-19T23:51:09.147Z,100622.41
2023-01-19T23:53:36.317Z,100575.63
2023-01-19T23:56:24.027Z,100624.56
2023-01-19T23:58:56.206Z,100623.75
